Dartmouth, Canada
Current Conditions -  °F | °C
As of 6:00 PM on Friday 19 Dec 2014 (Local Time) from CYHZ Reporting Station
Snow Showers Snow Showers  
Wind Chill: 21°   Ceiling: 400
Heat Index: 30°   Visibility: 1.5mi
Dew Point: 28°   Wind: 12mph
Humidity: 93%   Direction: 340°NNW
Pressure: 29.79"   Gusts: NA
Location:  44.67°N, 63.58°W
Report Text: CYHZ 192200Z 34010KT 1 1/2SM -SHSN OVC004 M01/M02 A2979 RMK SF8 TCU ASOCTD SLP095
Loading
Personal Weather Stations






























Interactive Weather Map New forecast layout! Learn more

10-Day Weather Forecast

Advertisements
Track Severe Weather on mobile